Time;durP1;ratioP1;P1;durP2;ratioP2;P2;SDS_P1;SDS_P2;PMS_P1;PMS_P2;Temp;Humidity;BMP_temperature;BMP_pressure;BME280_temperature;BME280_humidity;BME280_pressure;Samples;Min_cycle;Max_cycle;Signal;HPM_P1;HPM_P2
2023/06/30 00:01:39;;;;;;;3.72;1.90;;;26.10;56.70;;;;;;5035683;28;20021;-85
2023/06/30 00:04:06;;;;;;;3.30;1.73;;;26.00;56.60;;;;;;5030793;28;20030;-86
2023/06/30 00:06:33;;;;;;;3.40;1.90;;;26.10;56.80;;;;;;5015808;28;20359;-86
2023/06/30 00:08:59;;;;;;;4.75;1.90;;;26.10;56.80;;;;;;5015889;28;20025;-85
2023/06/30 00:11:25;;;;;;;3.58;1.48;;;26.10;56.90;;;;;;4997848;28;20053;-86
2023/06/30 00:13:52;;;;;;;2.70;1.80;;;26.10;57.10;;;;;;5015919;28;20041;-86
2023/06/30 00:16:18;;;;;;;3.83;1.60;;;26.10;57.20;;;;;;5015466;28;20486;-86
2023/06/30 00:18:43;;;;;;;3.00;1.50;;;26.00;56.60;;;;;;5015393;28;20034;-86
2023/06/30 00:21:09;;;;;;;2.05;1.52;;;26.10;56.80;;;;;;5015567;28;20378;-86
2023/06/30 00:23:35;;;;;;;1.80;1.30;;;26.10;56.70;;;;;;5015601;28;20026;-86
2023/06/30 00:26:01;;;;;;;2.60;1.60;;;26.10;57.50;;;;;;5015466;28;20014;-86
2023/06/30 00:28:27;;;;;;;2.25;1.45;;;26.00;56.90;;;;;;5015435;28;20029;-85
2023/06/30 00:30:52;;;;;;;1.92;1.40;;;26.00;56.80;;;;;;5026946;28;20029;-86
2023/06/30 00:33:18;;;;;;;4.10;1.80;;;26.00;57.00;;;;;;5035265;28;20040;-86
2023/06/30 00:35:44;;;;;;;4.18;1.20;;;26.00;57.60;;;;;;5033970;28;20385;-86
2023/06/30 00:38:10;;;;;;;5.65;1.77;;;26.00;57.50;;;;;;5034706;28;20068;-85
2023/06/30 00:40:35;;;;;;;1.90;1.63;;;26.00;57.50;;;;;;5034841;28;20443;-86
2023/06/30 00:43:01;;;;;;;3.22;1.60;;;26.00;57.40;;;;;;5017063;28;20389;-86
2023/06/30 00:45:27;;;;;;;2.90;1.40;;;26.00;57.90;;;;;;5016777;28;20099;-86
2023/06/30 00:47:53;;;;;;;2.38;1.42;;;25.90;57.20;;;;;;5034577;28;20496;-86
2023/06/30 00:50:19;;;;;;;3.78;1.15;;;25.90;57.40;;;;;;5034748;28;20032;-86
2023/06/30 00:52:47;;;;;;;3.35;1.35;;;25.90;57.00;;;;;;5016909;28;20548;-86
2023/06/30 00:55:15;;;;;;;4.30;1.38;;;25.90;56.80;;;;;;5034666;28;20025;-86
2023/06/30 00:57:41;;;;;;;2.13;1.42;;;25.90;56.90;;;;;;5034618;28;20060;-86
2023/06/30 01:00:11;;;;;;;2.88;1.23;;;25.90;57.10;;;;;;5016606;28;20030;-87
2023/06/30 01:02:45;;;;;;;2.50;1.40;;;25.90;57.00;;;;;;5034643;28;20472;-87
2023/06/30 01:05:37;;;;;;;1.98;1.08;;;25.90;57.00;;;;;;5034484;28;20260;-87
2023/06/30 01:08:15;;;;;;;2.45;1.30;;;25.90;57.30;;;;;;5031316;28;20022;-83
2023/06/30 01:10:44;;;;;;;2.63;1.30;;;25.90;57.80;;;;;;5014473;28;20046;-83
2023/06/30 01:13:11;;;;;;;4.10;1.80;;;25.90;57.80;;;;;;5014650;28;20048;-83
2023/06/30 01:15:38;;;;;;;3.45;1.55;;;25.90;58.00;;;;;;5014614;28;20034;-83
2023/06/30 01:18:04;;;;;;;1.92;1.70;;;25.90;58.10;;;;;;5030537;28;20107;-83
2023/06/30 01:20:32;;;;;;;3.28;2.00;;;25.90;58.20;;;;;;5016402;28;20077;-83
2023/06/30 01:23:02;;;;;;;2.60;1.70;;;25.90;58.70;;;;;;5034069;28;20013;-83
2023/06/30 01:25:29;;;;;;;2.08;1.42;;;25.90;58.80;;;;;;5030403;28;20028;-83
2023/06/30 01:27:56;;;;;;;2.72;1.52;;;25.90;58.70;;;;;;5025120;28;20022;-83
2023/06/30 01:30:23;;;;;;;2.08;1.70;;;25.90;58.80;;;;;;5001855;28;20127;-83
2023/06/30 01:32:54;;;;;;;4.38;2.45;;;25.90;59.10;;;;;;5014571;28;20038;-83
2023/06/30 01:35:21;;;;;;;4.68;3.40;;;25.80;58.80;;;;;;5014211;28;20018;-83
2023/06/30 01:37:46;;;;;;;6.70;3.60;;;25.90;59.00;;;;;;5014254;28;20034;-83
2023/06/30 01:40:12;;;;;;;4.25;2.90;;;25.90;59.00;;;;;;5014132;28;20038;-83
2023/06/30 01:42:39;;;;;;;3.03;2.42;;;25.90;59.30;;;;;;5014308;28;20358;-83
2023/06/30 01:45:07;;;;;;;6.20;2.20;;;25.90;59.40;;;;;;5014089;28;20034;-84
2023/06/30 01:47:33;;;;;;;4.13;2.40;;;25.90;59.40;;;;;;5013513;28;20018;-84
2023/06/30 01:49:59;;;;;;;3.63;2.28;;;25.90;59.60;;;;;;5013624;28;20033;-84
2023/06/30 01:52:25;;;;;;;3.10;2.00;;;25.90;59.60;;;;;;5013941;28;20021;-83
2023/06/30 01:54:51;;;;;;;4.18;2.08;;;25.80;59.50;;;;;;5014153;28;20037;-83
2023/06/30 01:57:16;;;;;;;2.83;2.03;;;25.80;60.00;;;;;;5013678;28;20026;-84
2023/06/30 01:59:43;;;;;;;4.68;2.10;;;25.80;59.60;;;;;;5013962;28;20110;-84
2023/06/30 02:02:08;;;;;;;4.97;2.25;;;25.80;60.00;;;;;;5013738;28;20072;-84
2023/06/30 02:04:34;;;;;;;5.28;2.08;;;25.80;60.00;;;;;;5033112;28;21061;-83
2023/06/30 02:07:03;;;;;;;4.65;1.65;;;25.80;59.90;;;;;;5033692;28;20021;-83
2023/06/30 02:09:30;;;;;;;6.15;2.38;;;25.80;60.00;;;;;;5033554;28;20155;-84
2023/06/30 02:11:55;;;;;;;3.60;1.90;;;25.80;60.40;;;;;;5030854;28;20057;-83
2023/06/30 02:14:35;;;;;;;3.08;1.85;;;25.80;60.30;;;;;;5013618;28;20030;-83
2023/06/30 02:17:05;;;;;;;3.67;1.95;;;25.70;60.30;;;;;;4995679;28;20477;-83
2023/06/30 02:19:30;;;;;;;3.47;2.00;;;25.70;60.40;;;;;;4996278;28;20034;-83
2023/06/30 02:21:56;;;;;;;5.50;2.40;;;25.70;60.30;;;;;;5013538;28;20172;-83
2023/06/30 02:24:21;;;;;;;7.38;2.38;;;25.70;60.10;;;;;;5013628;28;20061;-83
2023/06/30 02:26:47;;;;;;;3.88;2.25;;;25.60;59.80;;;;;;5013594;28;20030;-83
2023/06/30 02:29:13;;;;;;;3.47;2.42;;;25.60;60.10;;;;;;5013028;28;20041;-83
2023/06/30 02:31:39;;;;;;;3.85;2.28;;;25.60;60.30;;;;;;5013738;28;20441;-83
2023/06/30 02:34:05;;;;;;;4.50;2.42;;;25.60;60.60;;;;;;5013538;28;20038;-83
2023/06/30 02:36:30;;;;;;;4.72;2.40;;;25.50;60.70;;;;;;5013656;28;20026;-83
2023/06/30 02:38:56;;;;;;;5.68;2.50;;;25.50;60.90;;;;;;5013308;28;20038;-83
2023/06/30 02:41:22;;;;;;;5.05;2.85;;;25.50;61.00;;;;;;5013659;28;20032;-83
2023/06/30 02:43:48;;;;;;;4.50;2.40;;;25.50;60.90;;;;;;5013504;28;20033;-83
2023/06/30 02:46:14;;;;;;;3.70;2.33;;;25.50;61.20;;;;;;5013290;28;20101;-83
2023/06/30 02:48:39;;;;;;;3.92;2.30;;;25.50;61.40;;;;;;5013344;28;20456;-83
2023/06/30 02:51:05;;;;;;;4.18;2.35;;;25.40;61.50;;;;;;5013339;28;20470;-83
2023/06/30 02:53:30;;;;;;;4.75;2.55;;;25.40;61.90;;;;;;5013764;28;20022;-83
2023/06/30 02:55:56;;;;;;;3.53;2.15;;;25.30;62.00;;;;;;5013483;28;20022;-83
2023/06/30 02:58:22;;;;;;;3.95;2.33;;;25.30;62.40;;;;;;5013283;28;20072;-83
2023/06/30 03:00:49;;;;;;;2.75;1.88;;;25.30;62.70;;;;;;5016909;28;20041;-84
2023/06/30 03:03:15;;;;;;;2.78;1.88;;;25.20;62.90;;;;;;5017256;28;20022;-84
2023/06/30 03:05:40;;;;;;;4.53;2.13;;;25.10;63.20;;;;;;5017007;28;20024;-83
2023/06/30 03:08:06;;;;;;;2.88;2.00;;;25.10;63.20;;;;;;5016901;28;20034;-84
2023/06/30 03:10:32;;;;;;;2.33;1.60;;;25.10;63.40;;;;;;5016842;28;20030;-83
2023/06/30 03:12:58;;;;;;;2.92;1.70;;;25.00;63.20;;;;;;5027196;28;20037;-84
2023/06/30 03:15:23;;;;;;;7.30;1.50;;;25.00;63.30;;;;;;5036669;28;20057;-84
2023/06/30 03:17:49;;;;;;;3.55;1.77;;;25.00;63.60;;;;;;5030499;28;20053;-84
2023/06/30 03:20:15;;;;;;;5.38;1.98;;;24.90;63.60;;;;;;5016801;28;20030;-85
2023/06/30 03:22:42;;;;;;;2.90;1.73;;;24.80;63.90;;;;;;5016717;28;20480;-85
2023/06/30 03:25:11;;;;;;;3.55;1.73;;;24.70;63.90;;;;;;5016927;28;20093;-85
2023/06/30 03:27:36;;;;;;;2.08;1.63;;;24.70;64.30;;;;;;5036628;28;20058;-84
2023/06/30 03:30:04;;;;;;;4.30;2.60;;;24.60;64.30;;;;;;5036522;28;20056;-84
2023/06/30 03:32:30;;;;;;;7.63;2.30;;;24.50;64.50;;;;;;5018683;28;20025;-84
2023/06/30 03:34:56;;;;;;;2.92;1.90;;;24.50;64.70;;;;;;5036383;28;20104;-84
2023/06/30 03:37:22;;;;;;;5.85;2.17;;;24.50;64.70;;;;;;5036439;28;20049;-84
2023/06/30 03:39:48;;;;;;;3.78;2.42;;;24.50;64.90;;;;;;5036007;28;20040;-84
2023/06/30 03:42:13;;;;;;;7.57;2.67;;;24.60;65.00;;;;;;5036187;28;20045;-84
2023/06/30 03:44:39;;;;;;;3.25;2.17;;;24.60;64.80;;;;;;5019808;28;20478;-84
2023/06/30 03:47:05;;;;;;;4.25;2.60;;;24.60;64.90;;;;;;5016720;28;20084;-84
2023/06/30 03:49:30;;;;;;;5.35;2.45;;;24.60;64.90;;;;;;5034166;28;20497;-84
2023/06/30 03:51:56;;;;;;;3.78;2.28;;;24.60;65.10;;;;;;5036240;28;20037;-84
2023/06/30 03:54:22;;;;;;;3.50;2.20;;;24.70;65.10;;;;;;5035849;28;20030;-83
2023/06/30 03:56:47;;;;;;;3.38;2.28;;;24.70;65.30;;;;;;5020387;28;20030;-83
2023/06/30 03:59:13;;;;;;;6.00;2.60;;;24.70;65.50;;;;;;5016177;28;20025;-83
2023/06/30 04:01:40;;;;;;;5.28;2.92;;;24.70;65.00;;;;;;5015737;28;20034;-83
2023/06/30 04:04:06;;;;;;;7.93;2.40;;;24.70;64.90;;;;;;5015860;28;20030;-83
2023/06/30 04:06:33;;;;;;;3.75;2.60;;;24.70;64.80;;;;;;5016392;28;21145;-84
2023/06/30 04:08:59;;;;;;;5.10;2.45;;;24.70;64.60;;;;;;5015634;28;20028;-84
2023/06/30 04:11:25;;;;;;;3.97;2.60;;;24.70;64.60;;;;;;4997324;28;20049;-84
2023/06/30 04:13:56;;;;;;;4.60;2.65;;;24.70;64.70;;;;;;5022808;28;20021;-84
2023/06/30 04:16:22;;;;;;;3.47;2.67;;;24.70;65.10;;;;;;5035397;28;20084;-84
2023/06/30 04:18:48;;;;;;;3.10;2.60;;;24.70;64.50;;;;;;5035464;28;20434;-84
2023/06/30 04:21:13;;;;;;;2.75;2.10;;;24.70;64.70;;;;;;5035423;28;20025;-84
2023/06/30 04:23:40;;;;;;;3.55;2.55;;;24.70;64.50;;;;;;5035682;28;20037;-84
2023/06/30 04:26:06;;;;;;;4.05;2.65;;;24.70;64.40;;;;;;5034679;28;20064;-84
2023/06/30 04:28:31;;;;;;;4.80;2.30;;;24.70;64.50;;;;;;5008632;28;20454;-84
2023/06/30 04:31:00;;;;;;;5.35;2.35;;;24.70;64.60;;;;;;5015538;28;20025;-84
2023/06/30 04:33:26;;;;;;;6.05;2.67;;;24.70;64.80;;;;;;5015555;28;20030;-85
2023/06/30 04:35:51;;;;;;;3.25;1.98;;;24.60;64.70;;;;;;5015619;28;20022;-85
2023/06/30 04:38:19;;;;;;;7.50;2.38;;;24.60;64.60;;;;;;5015364;28;20077;-84
2023/06/30 04:41:17;;;;;;;3.20;2.10;;;24.50;64.70;;;;;;5015516;28;20033;-84
2023/06/30 04:43:45;;;;;;;8.55;2.45;;;24.50;64.80;;;;;;4998108;28;20070;-84
2023/06/30 04:46:11;;;;;;;3.55;2.25;;;24.50;65.00;;;;;;5016822;28;20069;-84
2023/06/30 04:48:37;;;;;;;4.55;2.10;;;24.50;65.10;;;;;;5033140;28;20025;-84
2023/06/30 04:51:03;;;;;;;5.72;2.22;;;24.60;65.00;;;;;;5015266;28;20061;-85
2023/06/30 04:53:28;;;;;;;6.13;2.70;;;24.60;65.20;;;;;;4997239;28;20155;-85
2023/06/30 04:55:54;;;;;;;4.32;2.17;;;24.60;65.10;;;;;;5020002;28;20033;-85
2023/06/30 04:58:19;;;;;;;3.95;2.90;;;24.70;65.60;;;;;;5014691;28;20378;-84
2023/06/30 05:00:45;;;;;;;3.83;2.40;;;24.70;65.20;;;;;;5022162;28;20492;-85
2023/06/30 05:03:11;;;;;;;7.70;3.05;;;24.70;65.20;;;;;;5027765;28;20040;-85
2023/06/30 05:05:37;;;;;;;4.97;2.83;;;24.70;65.10;;;;;;5034426;28;20025;-85
2023/06/30 05:08:03;;;;;;;5.75;3.05;;;24.80;65.50;;;;;;5017653;28;20033;-83
2023/06/30 05:10:28;;;;;;;4.47;2.95;;;24.80;65.50;;;;;;5014405;28;20025;-84
2023/06/30 05:12:54;;;;;;;6.50;2.92;;;24.80;65.40;;;;;;5014311;28;20038;-84
2023/06/30 05:15:20;;;;;;;5.20;2.85;;;24.70;65.50;;;;;;5014415;28;20387;-84
2023/06/30 05:17:45;;;;;;;6.65;2.53;;;24.70;65.70;;;;;;5014423;28;20037;-84
2023/06/30 05:20:11;;;;;;;6.93;3.03;;;24.60;65.70;;;;;;5014239;28;20022;-84
2023/06/30 05:22:37;;;;;;;6.82;2.75;;;24.60;65.70;;;;;;5013403;28;20358;-84
2023/06/30 05:25:03;;;;;;;5.03;2.80;;;24.70;66.10;;;;;;5014260;28;20109;-84
2023/06/30 05:27:29;;;;;;;4.07;2.50;;;24.70;66.20;;;;;;5032877;28;20057;-84
2023/06/30 05:29:54;;;;;;;4.18;2.60;;;24.60;66.20;;;;;;5033939;28;20057;-84
2023/06/30 05:32:21;;;;;;;2.65;2.28;;;24.60;66.20;;;;;;5033547;28;20025;-84
2023/06/30 05:34:47;;;;;;;3.35;2.15;;;24.60;65.90;;;;;;5033958;28;20469;-84
2023/06/30 05:37:13;;;;;;;4.30;2.67;;;24.60;65.70;;;;;;5034078;28;20010;-84
2023/06/30 05:39:38;;;;;;;5.30;2.50;;;24.60;66.10;;;;;;5033884;28;20022;-84
2023/06/30 05:42:04;;;;;;;7.20;2.50;;;24.60;66.30;;;;;;5017177;28;20033;-83
2023/06/30 05:44:30;;;;;;;5.05;2.75;;;24.70;66.30;;;;;;5025521;28;20030;-84
2023/06/30 05:46:56;;;;;;;4.07;2.35;;;24.70;66.10;;;;;;5015985;28;20091;-83
2023/06/30 05:49:22;;;;;;;5.75;2.35;;;24.80;66.20;;;;;;5015872;28;20450;-84
2023/06/30 05:51:48;;;;;;;3.38;2.28;;;24.70;66.30;;;;;;5033756;28;20036;-83
2023/06/30 05:54:14;;;;;;;4.68;2.05;;;24.80;66.10;;;;;;5005836;28;20037;-83
2023/06/30 05:56:40;;;;;;;3.42;2.20;;;24.80;66.00;;;;;;5013729;28;20037;-83
2023/06/30 05:59:10;;;;;;;4.72;2.40;;;24.90;66.00;;;;;;5013624;28;20026;-83
2023/06/30 06:01:38;;;;;;;3.25;1.92;;;25.00;66.10;;;;;;5017305;28;20034;-83
2023/06/30 06:04:13;;;;;;;3.45;2.33;;;25.10;65.80;;;;;;5030916;28;20025;-84
2023/06/30 06:06:39;;;;;;;4.55;2.05;;;25.20;65.50;;;;;;5025126;28;20026;-83
2023/06/30 06:09:04;;;;;;;2.67;1.73;;;25.30;65.10;;;;;;5013456;28;20089;-83
2023/06/30 06:11:30;;;;;;;3.40;2.28;;;25.30;64.90;;;;;;5014369;28;20074;-83
2023/06/30 06:13:56;;;;;;;5.25;1.92;;;25.40;65.60;;;;;;5014345;28;20695;-83
2023/06/30 06:16:22;;;;;;;3.42;2.20;;;25.40;65.30;;;;;;5015116;28;20046;-83
2023/06/30 06:18:48;;;;;;;3.13;2.05;;;25.50;65.60;;;;;;5026274;28;20022;-83
2023/06/30 06:21:13;;;;;;;2.63;1.73;;;25.50;65.50;;;;;;5027354;28;20072;-83
2023/06/30 06:23:39;;;;;;;3.28;2.20;;;25.60;65.50;;;;;;5033220;28;20056;-83
2023/06/30 06:26:05;;;;;;;5.97;2.60;;;25.60;65.60;;;;;;5028230;28;20030;-83
2023/06/30 06:28:31;;;;;;;2.78;2.00;;;25.70;65.70;;;;;;5017550;28;20080;-83
2023/06/30 06:30:56;;;;;;;2.00;1.80;;;25.70;65.60;;;;;;5003435;28;20033;-83
2023/06/30 06:33:22;;;;;;;2.67;1.88;;;25.70;65.90;;;;;;5026933;28;20086;-83
2023/06/30 06:35:51;;;;;;;2.70;2.10;;;25.80;66.10;;;;;;5020640;28;20029;-83
2023/06/30 06:38:18;;;;;;;3.30;1.73;;;25.80;66.10;;;;;;5020771;28;20470;-83
2023/06/30 06:40:47;;;;;;;2.60;1.42;;;25.90;66.30;;;;;;4997800;28;20033;-83
2023/06/30 06:43:13;;;;;;;4.43;1.80;;;26.00;66.00;;;;;;5013848;28;20030;-83
2023/06/30 06:45:41;;;;;;;3.47;1.45;;;26.10;65.30;;;;;;5013219;28;20148;-84
2023/06/30 06:48:26;;;;;;;2.00;1.35;;;26.10;65.30;;;;;;5021572;28;20041;-84
2023/06/30 06:50:56;;;;;;;4.00;1.83;;;26.20;65.50;;;;;;5012795;28;20030;-84
2023/06/30 06:53:24;;;;;;;2.40;1.77;;;26.20;65.50;;;;;;4994609;28;20029;-84
2023/06/30 06:55:51;;;;;;;3.05;1.85;;;26.30;65.60;;;;;;5013093;28;20034;-84
2023/06/30 06:58:17;;;;;;;4.25;1.92;;;26.30;65.40;;;;;;5013396;28;20103;-84
2023/06/30 07:00:47;;;;;;;2.25;1.73;;;26.40;65.20;;;;;;5012692;28;20549;-84
2023/06/30 07:03:13;;;;;;;;;;;26.40;64.60;;;;;;5013386;28;20026;-84
2023/06/30 07:05:43;;;;;;;2.83;1.63;;;26.40;64.50;;;;;;4995076;28;19912;-84
2023/06/30 07:08:10;;;;;;;4.15;1.45;;;26.50;64.60;;;;;;5013126;28;20029;-84
2023/06/30 07:10:36;;;;;;;5.47;1.40;;;26.50;64.60;;;;;;4994875;28;20490;-84
2023/06/30 07:13:02;;;;;;;1.85;1.30;;;26.60;64.70;;;;;;5012841;28;20092;-84
2023/06/30 07:15:28;;;;;;;4.72;2.00;;;26.60;64.80;;;;;;5012915;28;20036;-84
2023/06/30 07:17:56;;;;;;;2.58;1.30;;;26.70;64.60;;;;;;4995380;28;20034;-84
2023/06/30 07:20:22;;;;;;;5.88;1.45;;;26.70;64.40;;;;;;5012558;28;20030;-84
2023/06/30 07:22:48;;;;;;;2.60;1.77;;;26.90;64.20;;;;;;4994933;28;20509;-84
2023/06/30 07:25:14;;;;;;;3.47;1.23;;;27.00;64.10;;;;;;4995258;28;20025;-84
2023/06/30 07:27:40;;;;;;;2.47;1.38;;;27.00;63.20;;;;;;5012555;28;20057;-85
2023/06/30 07:30:06;;;;;;;2.63;1.25;;;27.10;63.30;;;;;;5012782;28;20033;-84
2023/06/30 07:32:34;;;;;;;1.27;1.17;;;27.10;63.40;;;;;;5012651;28;20030;-84
2023/06/30 07:35:02;;;;;;;3.03;1.30;;;27.10;63.80;;;;;;5012524;28;20041;-84
2023/06/30 07:37:28;;;;;;;2.58;1.23;;;27.20;63.80;;;;;;5013200;28;20201;-84
2023/06/30 07:39:53;;;;;;;1.75;1.30;;;27.30;62.60;;;;;;5012977;28;20027;-84
2023/06/30 07:42:19;;;;;;;3.20;1.42;;;27.30;60.90;;;;;;5012589;28;20462;-84
2023/06/30 07:44:45;;;;;;;3.22;1.40;;;27.30;61.10;;;;;;5012489;28;20018;-84
2023/06/30 07:47:10;;;;;;;1.67;1.20;;;27.40;60.70;;;;;;4997291;28;20382;-84
2023/06/30 07:49:37;;;;;;;2.08;1.05;;;27.40;60.50;;;;;;5016089;28;20022;-84
2023/06/30 07:52:02;;;;;;;1.73;0.90;;;27.40;59.90;;;;;;4998432;28;20038;-89
2023/06/30 07:54:28;;;;;;;1.75;1.08;;;27.40;59.50;;;;;;4999240;28;20013;-89
2023/06/30 07:56:54;;;;;;;6.13;1.15;;;27.50;59.50;;;;;;5015836;28;20430;-89
2023/06/30 07:59:19;;;;;;;1.33;0.90;;;27.50;59.50;;;;;;5016213;28;20026;-89
2023/06/30 08:01:45;;;;;;;1.48;1.00;;;27.60;59.00;;;;;;5015920;28;20113;-89
2023/06/30 08:04:11;;;;;;;1.48;0.77;;;27.70;59.30;;;;;;5015820;28;20026;-89
2023/06/30 08:06:36;;;;;;;1.23;0.90;;;27.90;59.60;;;;;;5015912;28;20038;-88
2023/06/30 08:09:02;;;;;;;1.15;0.85;;;27.90;59.50;;;;;;4998330;28;20018;-89
2023/06/30 08:11:29;;;;;;;1.52;1.02;;;28.00;59.70;;;;;;4998239;28;20053;-89
2023/06/30 08:13:56;;;;;;;3.67;1.15;;;28.00;60.00;;;;;;5001459;28;20362;-89
2023/06/30 08:16:21;;;;;;;1.73;0.90;;;28.10;59.60;;;;;;5031178;28;20531;-89
2023/06/30 08:18:48;;;;;;;1.65;1.00;;;28.10;59.20;;;;;;5028937;28;20037;-89
2023/06/30 08:21:13;;;;;;;5.07;1.08;;;28.20;59.30;;;;;;4998447;28;20038;-90
2023/06/30 08:23:39;;;;;;;2.42;1.00;;;28.30;59.20;;;;;;5029819;28;20529;-89
2023/06/30 08:26:05;;;;;;;2.05;1.08;;;28.30;59.00;;;;;;5018032;28;20053;-90
2023/06/30 08:28:30;;;;;;;1.92;1.10;;;28.40;58.70;;;;;;5026087;28;20090;-89
2023/06/30 08:30:56;;;;;;;2.40;1.17;;;28.40;58.20;;;;;;5016007;28;20064;-89
2023/06/30 08:33:27;;;;;;;1.60;1.10;;;28.40;57.20;;;;;;5014921;28;20026;-89
2023/06/30 08:35:52;;;;;;;2.15;0.95;;;28.40;56.70;;;;;;5015253;28;20041;-90
2023/06/30 08:38:18;;;;;;;4.25;1.00;;;28.40;57.00;;;;;;5015270;28;20466;-89
2023/06/30 08:40:44;;;;;;;2.63;0.98;;;28.50;56.50;;;;;;5015003;28;20048;-89
2023/06/30 08:43:13;;;;;;;1.88;0.98;;;28.50;56.50;;;;;;5030129;28;20399;-89
2023/06/30 08:45:42;;;;;;;1.97;1.07;;;28.50;55.80;;;;;;5033912;28;20032;-89
2023/06/30 08:48:09;;;;;;;1.05;0.75;;;28.50;56.30;;;;;;5007236;28;20753;-89
2023/06/30 08:50:35;;;;;;;1.65;1.00;;;28.50;56.30;;;;;;5025203;28;20083;-89
2023/06/30 08:53:03;;;;;;;1.60;0.90;;;28.60;57.00;;;;;;5004461;28;20441;-88
2023/06/30 08:55:29;;;;;;;2.08;0.93;;;28.70;57.50;;;;;;5019320;28;20030;-89
2023/06/30 08:57:56;;;;;;;2.00;0.88;;;28.70;57.50;;;;;;5026908;28;20531;-89
2023/06/30 09:00:25;;;;;;;2.55;0.98;;;28.70;57.60;;;;;;4999828;28;20401;-88
2023/06/30 09:02:54;;;;;;;3.10;1.13;;;28.70;58.20;;;;;;5018511;28;20034;-89
2023/06/30 09:05:27;;;;;;;5.15;0.80;;;28.70;58.50;;;;;;5024051;28;20022;-83
2023/06/30 09:07:57;;;;;;;1.85;1.20;;;28.80;59.00;;;;;;5023080;28;20032;-84
2023/06/30 09:10:37;;;;;;;1.70;1.00;;;28.80;58.70;;;;;;5021267;28;20417;-84
2023/06/30 09:13:04;;;;;;;1.17;0.90;;;28.70;57.60;;;;;;5009837;28;20486;-84
2023/06/30 09:15:31;;;;;;;1.83;1.10;;;28.70;58.30;;;;;;5023822;28;20029;-84
2023/06/30 09:17:57;;;;;;;2.42;1.10;;;28.70;58.90;;;;;;5009588;28;20040;-86
2023/06/30 09:20:23;;;;;;;5.28;0.88;;;28.80;59.80;;;;;;5025286;28;20021;-86
2023/06/30 09:22:50;;;;;;;1.45;0.90;;;28.80;58.60;;;;;;5023164;28;20352;-86
2023/06/30 09:25:24;;;;;;;2.03;0.70;;;28.90;58.50;;;;;;5004066;28;20399;-86
2023/06/30 09:27:51;;;;;;;1.08;0.70;;;28.90;57.90;;;;;;5021396;28;20069;-86
2023/06/30 09:30:16;;;;;;;2.58;0.70;;;29.00;57.40;;;;;;5025286;28;20024;-86
2023/06/30 09:32:42;;;;;;;1.60;0.80;;;29.10;57.60;;;;;;5021890;28;20034;-85
2023/06/30 09:35:12;;;;;;;1.17;0.90;;;29.20;57.40;;;;;;5020580;28;20026;-86
2023/06/30 09:37:42;;;;;;;1.90;1.00;;;29.30;56.50;;;;;;5022921;28;20030;-85
2023/06/30 09:40:12;;;;;;;1.88;1.00;;;29.30;55.10;;;;;;5023757;28;20033;-85
2023/06/30 09:42:40;;;;;;;1.83;1.00;;;29.40;55.30;;;;;;5024369;28;20033;-86
2023/06/30 09:45:06;;;;;;;2.35;1.00;;;29.40;55.70;;;;;;5018619;28;20033;-86
2023/06/30 09:47:31;;;;;;;1.65;1.10;;;29.50;56.00;;;;;;5022514;28;20040;-85
2023/06/30 09:49:58;;;;;;;1.80;1.00;;;29.60;56.20;;;;;;5004637;28;20025;-86
2023/06/30 09:52:25;;;;;;;2.05;0.88;;;29.60;56.00;;;;;;5024206;28;20021;-87
2023/06/30 09:54:51;;;;;;;1.73;0.98;;;29.70;56.30;;;;;;5022018;28;20022;-87
2023/06/30 09:57:16;;;;;;;1.55;1.10;;;29.70;56.60;;;;;;5018244;28;20492;-87
2023/06/30 09:59:42;;;;;;;0.80;0.80;;;29.80;57.00;;;;;;5020288;28;20030;-86
2023/06/30 10:02:10;;;;;;;1.50;0.88;;;29.90;57.00;;;;;;5001573;28;20044;-86
2023/06/30 10:04:35;;;;;;;1.38;0.98;;;30.00;56.30;;;;;;5023117;28;20104;-86
2023/06/30 10:07:03;;;;;;;1.23;0.90;;;30.10;55.60;;;;;;5021423;28;20640;-87
2023/06/30 10:09:30;;;;;;;0.70;0.65;;;30.10;55.90;;;;;;5019590;28;20032;-84
2023/06/30 10:11:58;;;;;;;0.70;0.55;;;30.20;56.80;;;;;;5000907;28;20058;-84
2023/06/30 10:14:31;;;;;;;1.42;0.70;;;30.20;56.50;;;;;;5003625;28;20030;-85
2023/06/30 10:17:00;;;;;;;0.93;0.80;;;30.20;56.30;;;;;;5002554;28;20474;-83
2023/06/30 10:19:27;;;;;;;0.95;0.60;;;30.20;56.20;;;;;;5004514;28;20035;-83
2023/06/30 10:21:54;;;;;;;1.60;1.10;;;30.20;55.60;;;;;;5004798;28;20465;-83
2023/06/30 10:24:25;;;;;;;1.25;0.65;;;30.20;54.60;;;;;;5006596;28;20358;-84
2023/06/30 10:26:53;;;;;;;1.90;0.80;;;30.20;54.50;;;;;;4998664;28;20034;-83
2023/06/30 10:29:20;;;;;;;1.10;0.90;;;30.10;53.90;;;;;;5004100;28;20049;-83
2023/06/30 10:31:46;;;;;;;1.33;1.05;;;30.00;54.00;;;;;;4999744;28;20030;-84
2023/06/30 10:34:12;;;;;;;1.65;1.00;;;30.00;54.30;;;;;;4994887;28;20081;-84
2023/06/30 10:36:39;;;;;;;0.70;0.70;;;29.90;52.90;;;;;;4999470;28;20036;-84
2023/06/30 10:39:05;;;;;;;0.98;0.88;;;29.90;52.30;;;;;;5004238;28;20449;-84
2023/06/30 10:41:30;;;;;;;2.00;0.70;;;29.90;53.30;;;;;;5000990;28;20487;-84
2023/06/30 10:44:08;;;;;;;1.40;0.95;;;29.90;52.30;;;;;;4996368;28;20105;-83
2023/06/30 10:46:43;;;;;;;2.97;0.70;;;30.00;52.80;;;;;;5004466;28;20109;-84
2023/06/30 10:49:35;;;;;;;1.30;0.90;;;30.20;52.50;;;;;;4999086;28;20475;-83
2023/06/30 10:52:04;;;;;;;1.05;0.77;;;30.40;52.10;;;;;;4991622;28;20042;-84
2023/06/30 10:54:52;;;;;;;1.55;1.05;;;30.60;52.20;;;;;;4996671;28;20046;-83
2023/06/30 10:57:19;;;;;;;2.22;1.00;;;30.80;52.20;;;;;;5003986;28;20023;-84
2023/06/30 11:00:02;;;;;;;3.17;1.00;;;30.90;50.40;;;;;;4996025;28;20410;-84
2023/06/30 11:02:31;;;;;;;1.60;0.75;;;31.00;51.40;;;;;;4993151;28;20093;-84
2023/06/30 11:05:19;;;;;;;1.53;0.90;;;31.20;51.20;;;;;;4999505;28;20036;-83
2023/06/30 11:08:09;;;;;;;2.05;0.60;;;31.20;51.10;;;;;;5000576;28;20062;-84
2023/06/30 11:10:45;;;;;;;0.95;0.90;;;31.30;50.60;;;;;;4996009;28;20568;-87
2023/06/30 11:13:11;;;;;;;1.33;0.68;;;31.20;50.20;;;;;;5012929;28;20039;-83
2023/06/30 11:15:45;;;;;;;1.60;0.77;;;31.10;51.20;;;;;;5018505;28;20096;-87
2023/06/30 11:18:18;;;;;;;0.98;0.88;;;31.00;51.50;;;;;;5031928;28;20030;-85
2023/06/30 11:21:03;;;;;;;1.85;0.95;;;30.80;50.40;;;;;;5007347;28;20032;-85
2023/06/30 11:23:33;;;;;;;3.33;1.20;;;30.70;50.80;;;;;;5032200;28;20026;-88
2023/06/30 11:26:14;;;;;;;1.58;0.93;;;30.50;51.50;;;;;;4998937;28;20513;-90
2023/06/30 11:28:41;;;;;;;2.58;1.00;;;30.30;52.40;;;;;;5016823;28;20454;-89
2023/06/30 11:31:07;;;;;;;1.33;0.80;;;30.20;52.50;;;;;;5022281;28;20029;-90
2023/06/30 11:33:39;;;;;;;0.93;0.77;;;30.00;53.00;;;;;;5036310;28;20028;-89
2023/06/30 11:36:11;;;;;;;2.75;0.98;;;29.90;53.30;;;;;;5036149;28;20030;-87
2023/06/30 11:38:50;;;;;;;1.15;0.90;;;29.70;53.80;;;;;;5023537;28;20030;-90
2023/06/30 11:41:21;;;;;;;1.30;1.08;;;29.60;55.20;;;;;;5016215;28;20030;-86
2023/06/30 11:43:53;;;;;;;2.90;1.00;;;29.50;56.10;;;;;;5016453;28;20061;-83
2023/06/30 11:46:20;;;;;;;2.92;1.20;;;29.30;54.60;;;;;;5016796;28;20105;-83
2023/06/30 11:48:47;;;;;;;1.30;0.90;;;29.20;54.90;;;;;;5018086;28;20048;-86
2023/06/30 11:51:13;;;;;;;4.05;1.13;;;29.10;55.10;;;;;;5025120;28;20033;-86
2023/06/30 11:53:49;;;;;;;2.28;1.27;;;29.10;55.70;;;;;;5026327;28;20037;-87
2023/06/30 11:56:17;;;;;;;6.55;1.10;;;29.00;57.00;;;;;;5009098;28;20108;-87
2023/06/30 11:58:47;;;;;;;1.30;0.95;;;28.90;57.40;;;;;;5028339;28;20440;-87
2023/06/30 12:01:13;;;;;;;1.17;0.80;;;28.90;57.50;;;;;;5020422;28;20034;-87
2023/06/30 12:03:39;;;;;;;1.20;0.60;;;28.80;57.50;;;;;;5021203;28;20076;-87
2023/06/30 12:06:04;;;;;;;1.88;0.88;;;28.80;57.80;;;;;;5026360;28;20662;-87
2023/06/30 12:08:34;;;;;;;1.70;1.00;;;28.80;58.00;;;;;;5006658;28;20493;-86
2023/06/30 12:11:03;;;;;;;2.10;0.75;;;28.80;58.00;;;;;;5008435;28;20397;-86
2023/06/30 12:13:29;;;;;;;0.93;0.52;;;28.80;58.40;;;;;;5025081;28;20100;-85
2023/06/30 12:16:02;;;;;;;1.58;0.75;;;28.90;58.50;;;;;;5023967;28;20196;-86
2023/06/30 12:18:37;;;;;;;0.70;0.60;;;28.90;58.90;;;;;;5025205;28;20036;-86
2023/06/30 12:21:13;;;;;;;1.35;0.75;;;29.00;59.30;;;;;;5009805;28;20031;-88
2023/06/30 12:23:45;;;;;;;1.23;0.80;;;29.10;59.60;;;;;;5027452;28;20050;-87
2023/06/30 12:26:12;;;;;;;3.15;1.08;;;29.10;59.50;;;;;;5026126;28;20025;-86
2023/06/30 12:28:38;;;;;;;0.70;0.70;;;29.20;59.70;;;;;;5024782;28;20204;-86
2023/06/30 12:31:03;;;;;;;1.67;0.75;;;29.30;59.40;;;;;;5029394;28;20037;-86
2023/06/30 12:33:29;;;;;;;1.25;0.70;;;29.40;58.90;;;;;;5020646;28;20128;-86
2023/06/30 12:35:55;;;;;;;2.05;0.80;;;29.40;58.40;;;;;;5025064;28;20017;-86
2023/06/30 12:38:20;;;;;;;0.95;0.80;;;29.40;58.30;;;;;;5035067;28;20478;-86
2023/06/30 12:40:46;;;;;;;2.22;0.90;;;29.40;58.30;;;;;;5034864;28;20037;-86
2023/06/30 12:43:12;;;;;;;1.23;0.75;;;29.40;58.80;;;;;;5035298;28;20025;-86
2023/06/30 12:45:38;;;;;;;1.10;0.68;;;29.30;60.20;;;;;;5017481;28;20131;-86
2023/06/30 12:48:03;;;;;;;1.33;0.70;;;29.20;59.60;;;;;;5034664;28;20484;-86
2023/06/30 12:50:30;;;;;;;0.57;0.40;;;29.20;59.70;;;;;;5023882;28;20021;-89